createdAt,value
2018-12-11T00:00:09.943Z,5.80
2018-12-11T00:02:38.082Z,5.80
2018-12-11T00:05:06.147Z,5.80
2018-12-11T00:07:34.280Z,5.80
2018-12-11T00:10:02.341Z,5.80
2018-12-11T00:12:31.062Z,5.80
2018-12-11T00:14:59.128Z,5.90
2018-12-11T00:17:27.230Z,5.90
2018-12-11T00:19:55.298Z,5.90
2018-12-11T00:22:23.347Z,5.90
2018-12-11T00:24:51.419Z,6.00
2018-12-11T00:27:19.515Z,6.00
2018-12-11T00:29:47.587Z,6.00
2018-12-11T00:32:15.772Z,6.10
2018-12-11T00:34:43.828Z,6.00
2018-12-11T00:37:11.882Z,6.10
2018-12-11T00:39:39.943Z,6.10
2018-12-11T00:42:07.994Z,6.10
2018-12-11T00:44:36.078Z,6.10
2018-12-11T00:47:04.266Z,6.10
2018-12-11T00:49:32.322Z,6.10
2018-12-11T00:52:00.382Z,6.10
2018-12-11T00:54:28.438Z,6.20
2018-12-11T00:56:56.498Z,6.10
2018-12-11T00:59:24.567Z,6.10
2018-12-11T01:01:52.631Z,6.20
2018-12-11T01:04:20.870Z,6.10
2018-12-11T01:06:49.030Z,6.10
2018-12-11T01:09:17.074Z,6.20
2018-12-11T01:11:45.159Z,6.20
2018-12-11T01:14:13.567Z,6.20
2018-12-11T01:16:41.663Z,6.20
2018-12-11T01:19:09.712Z,6.20
2018-12-11T01:21:37.869Z,6.20
2018-12-11T01:24:05.946Z,6.20
2018-12-11T01:26:34.009Z,6.20
2018-12-11T01:29:02.063Z,6.20
2018-12-11T01:31:30.172Z,6.20
2018-12-11T01:33:58.218Z,6.20
2018-12-11T01:36:26.302Z,6.20
2018-12-11T01:38:54.384Z,6.30
2018-12-11T01:41:22.434Z,6.30
2018-12-11T01:43:50.505Z,6.30
2018-12-11T01:46:18.636Z,6.20
2018-12-11T01:48:46.706Z,6.20
2018-12-11T01:51:14.782Z,6.10
2018-12-11T01:53:42.869Z,6.10
2018-12-11T01:56:10.952Z,6.00
2018-12-11T01:58:39.134Z,6.00
2018-12-11T02:01:07.263Z,6.00
2018-12-11T02:03:35.333Z,5.90
2018-12-11T02:06:03.446Z,5.90
2018-12-11T02:08:31.504Z,5.90
2018-12-11T02:10:59.698Z,5.90
2018-12-11T02:13:27.878Z,5.90
2018-12-11T02:15:55.982Z,5.90
2018-12-11T02:18:24.065Z,5.90
2018-12-11T02:20:52.175Z,5.90
2018-12-11T02:23:20.255Z,5.90
2018-12-11T02:25:48.348Z,5.90
2018-12-11T02:28:16.498Z,5.90
2018-12-11T02:30:44.605Z,5.90
2018-12-11T02:33:12.744Z,5.90
2018-12-11T02:35:40.947Z,5.90
2018-12-11T02:38:09.042Z,5.90
2018-12-11T02:40:37.087Z,5.90
2018-12-11T02:43:05.238Z,5.90
2018-12-11T02:45:33.348Z,5.90
2018-12-11T02:48:01.408Z,5.90
2018-12-11T02:50:29.488Z,5.90
2018-12-11T02:52:57.622Z,5.90
2018-12-11T02:55:25.719Z,5.90
2018-12-11T02:57:53.966Z,5.90
2018-12-11T03:00:22.075Z,5.90
2018-12-11T03:02:50.146Z,5.80
2018-12-11T03:05:18.290Z,5.80
2018-12-11T03:07:46.384Z,5.80
2018-12-11T03:10:14.595Z,5.80
2018-12-11T03:12:42.653Z,5.70
2018-12-11T03:15:10.784Z,5.70
2018-12-11T03:17:38.962Z,5.60
2018-12-11T03:20:07.255Z,5.60
2018-12-11T03:22:35.312Z,5.50
2018-12-11T03:25:03.488Z,5.50
2018-12-11T03:27:31.546Z,5.50
2018-12-11T03:29:59.607Z,5.50
2018-12-11T03:32:27.684Z,5.50
2018-12-11T03:34:55.874Z,5.50
2018-12-11T03:37:23.938Z,5.50
2018-12-11T03:39:51.995Z,5.50
2018-12-11T03:42:20.098Z,5.50
2018-12-11T03:44:48.232Z,5.50
2018-12-11T03:47:16.338Z,5.60
2018-12-11T03:49:44.410Z,5.50
2018-12-11T03:52:12.524Z,5.60
2018-12-11T03:54:40.562Z,5.60
2018-12-11T03:57:08.629Z,5.60
2018-12-11T03:59:37.533Z,5.70
2018-12-11T04:02:05.866Z,5.70
2018-12-11T04:04:33.935Z,5.70
2018-12-11T04:07:02.094Z,5.70
2018-12-11T04:09:30.219Z,5.80
2018-12-11T04:11:58.367Z,5.80
2018-12-11T04:14:26.811Z,5.80
2018-12-11T04:16:54.903Z,5.80
2018-12-11T04:19:23.003Z,5.80
2018-12-11T04:21:51.134Z,5.80
2018-12-11T04:24:19.186Z,5.80
2018-12-11T04:26:47.419Z,5.80
2018-12-11T04:29:15.527Z,5.80
2018-12-11T04:31:43.586Z,5.80
2018-12-11T04:34:12.463Z,5.80
2018-12-11T04:36:40.518Z,5.80
2018-12-11T04:39:08.671Z,5.80
2018-12-11T04:41:36.748Z,5.80
2018-12-11T04:44:04.929Z,5.80
2018-12-11T04:46:32.980Z,5.80
2018-12-11T04:49:01.159Z,5.80
2018-12-11T04:51:29.219Z,5.80
2018-12-11T04:53:57.369Z,5.80
2018-12-11T04:56:25.418Z,5.80
2018-12-11T04:58:53.481Z,5.70
2018-12-11T05:01:21.658Z,5.70
2018-12-11T05:03:49.799Z,5.70
2018-12-11T05:06:17.841Z,5.70
2018-12-11T05:08:45.910Z,5.60
2018-12-11T05:11:14.011Z,5.60
2018-12-11T05:13:42.066Z,5.60
2018-12-11T05:16:10.191Z,5.60
2018-12-11T05:18:38.274Z,5.60
2018-12-11T05:21:06.365Z,5.60
2018-12-11T05:23:34.407Z,5.60
2018-12-11T05:26:02.582Z,5.60
2018-12-11T05:28:30.668Z,5.50
2018-12-11T05:30:58.808Z,5.60
2018-12-11T05:33:26.953Z,5.50
2018-12-11T05:35:55.025Z,5.50
2018-12-11T05:38:23.158Z,5.50
2018-12-11T05:40:51.241Z,5.50
2018-12-11T05:43:19.384Z,5.50
2018-12-11T05:45:47.462Z,5.50
2018-12-11T05:48:15.554Z,5.60
2018-12-11T05:50:43.624Z,5.60
2018-12-11T05:53:11.687Z,5.60
2018-12-11T05:55:39.767Z,5.60
2018-12-11T05:58:07.836Z,5.60
2018-12-11T06:00:35.939Z,5.70
2018-12-11T06:03:04.042Z,5.70
2018-12-11T06:05:32.165Z,5.70
2018-12-11T06:08:00.223Z,5.70
2018-12-11T06:10:28.286Z,5.70
2018-12-11T06:12:56.338Z,5.80
2018-12-11T06:15:24.428Z,5.80
2018-12-11T06:17:52.485Z,5.80
2018-12-11T06:20:20.603Z,5.70
2018-12-11T06:22:48.702Z,5.70
2018-12-11T06:25:16.846Z,5.70
2018-12-11T06:27:44.887Z,5.70
2018-12-11T06:30:13.101Z,5.70
2018-12-11T06:32:41.663Z,5.60
2018-12-11T06:35:09.759Z,5.60
2018-12-11T06:37:37.853Z,5.50
2018-12-11T06:40:07.083Z,5.50
2018-12-11T06:42:35.224Z,5.50
2018-12-11T06:45:03.549Z,5.40
2018-12-11T06:47:31.642Z,5.40
2018-12-11T06:49:59.702Z,5.40
2018-12-11T06:52:27.790Z,5.40
2018-12-11T06:54:55.867Z,5.40
2018-12-11T06:57:23.922Z,5.40
2018-12-11T06:59:52.004Z,5.40
2018-12-11T07:02:20.120Z,5.40
2018-12-11T07:04:48.283Z,5.40
2018-12-11T07:07:16.642Z,5.40
2018-12-11T07:09:44.702Z,5.40
2018-12-11T07:12:12.980Z,5.40
2018-12-11T07:14:41.162Z,5.40
2018-12-11T07:17:09.207Z,5.40
2018-12-11T07:19:37.270Z,5.50
2018-12-11T07:22:05.343Z,5.50
2018-12-11T07:24:33.453Z,5.50
2018-12-11T07:27:01.547Z,5.50
2018-12-11T07:29:29.630Z,5.50
2018-12-11T07:31:57.676Z,5.60
2018-12-11T07:34:25.739Z,5.60
2018-12-11T07:36:53.810Z,5.60
2018-12-11T07:39:21.881Z,5.60
2018-12-11T07:41:49.939Z,5.60
2018-12-11T07:44:18.103Z,5.70
2018-12-11T07:46:46.175Z,5.70
2018-12-11T07:49:14.227Z,5.70
2018-12-11T07:51:42.286Z,5.70
2018-12-11T07:54:10.417Z,5.80
2018-12-11T07:56:38.503Z,5.80
2018-12-11T07:59:06.591Z,5.80
2018-12-11T08:01:34.678Z,5.80
2018-12-11T08:04:02.758Z,5.80
2018-12-11T08:06:30.848Z,5.90
2018-12-11T08:08:58.898Z,6.00
2018-12-11T08:11:27.050Z,5.90
2018-12-11T08:13:55.103Z,5.90
2018-12-11T08:16:23.295Z,5.90
2018-12-11T08:18:51.854Z,5.90
2018-12-11T08:21:19.910Z,5.90
2018-12-11T08:23:48.050Z,5.90
2018-12-11T08:26:16.129Z,6.00
2018-12-11T08:28:44.175Z,6.00
2018-12-11T08:31:12.238Z,6.00
2018-12-11T08:33:40.282Z,6.00
2018-12-11T08:36:08.351Z,6.10
2018-12-11T08:38:36.400Z,6.10
2018-12-11T08:41:04.538Z,6.10
2018-12-11T08:43:32.590Z,6.20
2018-12-11T08:46:00.742Z,6.20
2018-12-11T08:48:28.804Z,6.20
2018-12-11T08:50:56.946Z,6.30
2018-12-11T08:53:25.030Z,6.30
2018-12-11T08:55:53.131Z,6.40
2018-12-11T08:58:21.194Z,6.40
2018-12-11T09:00:49.356Z,6.40
2018-12-11T09:03:17.555Z,6.40
2018-12-11T09:05:45.610Z,6.50
2018-12-11T09:08:13.758Z,6.70
2018-12-11T09:10:41.835Z,6.90
2018-12-11T09:13:09.962Z,7.30
2018-12-11T09:15:38.031Z,7.60
2018-12-11T09:18:06.158Z,8.10
2018-12-11T09:20:34.226Z,8.50
2018-12-11T09:23:02.287Z,9.00
2018-12-11T09:25:30.366Z,9.50
2018-12-11T09:27:58.450Z,9.90
2018-12-11T09:30:26.519Z,10.20
2018-12-11T09:32:55.397Z,10.50
2018-12-11T09:35:23.496Z,10.80
2018-12-11T09:37:51.578Z,11.00
2018-12-11T09:40:24.486Z,11.30
2018-12-11T09:42:49.750Z,11.50
2018-12-11T09:45:18.108Z,11.70
2018-12-11T09:47:46.202Z,11.90
2018-12-11T09:50:14.266Z,12.10
2018-12-11T09:52:42.410Z,12.20
2018-12-11T09:55:10.675Z,12.30
2018-12-11T09:57:38.822Z,12.40
2018-12-11T10:00:08.010Z,12.40
2018-12-11T10:02:36.377Z,12.40
2018-12-11T10:05:05.049Z,12.30
2018-12-11T10:07:33.163Z,12.10
2018-12-11T10:10:01.523Z,11.90
2018-12-11T10:12:29.631Z,11.70
2018-12-11T10:14:57.682Z,11.70
2018-12-11T10:17:25.781Z,11.80
2018-12-11T10:19:53.886Z,11.90
2018-12-11T10:22:21.991Z,12.10
2018-12-11T10:24:50.104Z,12.10
2018-12-11T10:27:18.294Z,12.10
2018-12-11T10:29:46.398Z,12.00
2018-12-11T10:32:14.469Z,11.80
2018-12-11T10:34:42.527Z,11.70
2018-12-11T10:37:10.594Z,11.40
2018-12-11T10:39:38.698Z,11.10
2018-12-11T10:42:06.872Z,10.90
2018-12-11T10:44:34.959Z,10.70
2018-12-11T10:47:04.241Z,10.40
2018-12-11T10:49:32.582Z,10.30
2018-12-11T10:52:00.655Z,10.10
2018-12-11T10:54:28.741Z,9.90
2018-12-11T10:56:56.865Z,9.80
2018-12-11T10:59:24.955Z,9.60
2018-12-11T11:01:53.048Z,9.50
2018-12-11T11:04:21.402Z,9.40
2018-12-11T11:06:49.527Z,9.60
2018-12-11T11:09:18.544Z,9.30
2018-12-11T11:11:46.724Z,9.20
2018-12-11T11:14:14.881Z,9.10
2018-12-11T11:16:43.077Z,9.00
2018-12-11T11:19:11.162Z,9.00
2018-12-11T11:21:39.304Z,8.90
2018-12-11T11:24:07.382Z,8.90
2018-12-11T11:26:35.478Z,8.80
2018-12-11T11:29:03.705Z,8.80
2018-12-11T11:31:31.787Z,8.50
2018-12-11T11:33:59.849Z,8.70
2018-12-11T11:36:27.996Z,8.70
2018-12-11T11:38:56.104Z,8.60
2018-12-11T11:41:24.259Z,8.60
2018-12-11T11:43:52.434Z,8.60
2018-12-11T11:46:20.618Z,8.60
2018-12-11T11:48:48.683Z,8.70
2018-12-11T11:51:16.733Z,8.80
2018-12-11T11:53:44.915Z,8.90
2018-12-11T11:56:13.007Z,9.10
2018-12-11T11:58:41.070Z,9.20
2018-12-11T12:01:09.194Z,9.40
2018-12-11T12:03:37.263Z,9.50
2018-12-11T12:06:05.973Z,9.60
2018-12-11T12:08:34.030Z,9.80
2018-12-11T12:11:02.101Z,9.90
2018-12-11T12:13:30.225Z,10.00
2018-12-11T12:15:58.299Z,10.00
2018-12-11T12:18:26.363Z,10.10
2018-12-11T12:20:54.429Z,10.10
2018-12-11T12:23:22.497Z,10.20
2018-12-11T12:25:50.587Z,10.20
2018-12-11T12:28:18.778Z,10.20
2018-12-11T12:30:47.629Z,10.20
2018-12-11T12:33:15.690Z,10.20
2018-12-11T12:35:43.758Z,10.20
2018-12-11T12:38:11.819Z,10.10
2018-12-11T12:40:39.879Z,10.10
2018-12-11T12:43:07.954Z,10.00
2018-12-11T12:45:36.078Z,10.00
2018-12-11T12:48:05.384Z,9.90
2018-12-11T12:50:33.603Z,9.80
2018-12-11T12:53:01.662Z,9.80
2018-12-11T12:55:29.723Z,9.70
2018-12-11T12:57:57.796Z,9.60
2018-12-11T13:00:25.854Z,9.60
2018-12-11T13:02:53.923Z,9.50
2018-12-11T13:05:21.983Z,9.50
2018-12-11T13:07:50.079Z,9.50
2018-12-11T13:10:18.142Z,9.40
2018-12-11T13:12:46.212Z,9.40
2018-12-11T13:15:14.290Z,9.40
2018-12-11T13:17:42.390Z,9.30
2018-12-11T13:20:10.450Z,9.30
2018-12-11T13:22:38.548Z,9.30
2018-12-11T13:25:06.739Z,9.20
2018-12-11T13:27:34.801Z,9.20
2018-12-11T13:30:03.134Z,9.20
2018-12-11T13:32:31.197Z,9.10
2018-12-11T13:34:59.255Z,9.10
2018-12-11T13:37:27.417Z,9.10
2018-12-11T13:39:55.518Z,9.10
2018-12-11T13:42:23.621Z,9.10
2018-12-11T13:44:51.822Z,9.10
2018-12-11T13:47:19.926Z,9.10
2018-12-11T13:49:47.993Z,9.10
2018-12-11T13:52:16.098Z,9.10
2018-12-11T13:54:44.226Z,9.10
2018-12-11T13:57:12.377Z,9.00
2018-12-11T13:59:40.448Z,9.00
2018-12-11T14:02:08.499Z,9.10
2018-12-11T14:04:36.598Z,9.00
2018-12-11T14:07:04.736Z,9.00
2018-12-11T14:09:40.675Z,9.00
2018-12-11T14:12:10.018Z,9.00
2018-12-11T14:14:38.107Z,9.00
2018-12-11T14:17:06.198Z,9.00
2018-12-11T14:19:34.290Z,8.90
2018-12-11T14:22:02.478Z,8.90
2018-12-11T14:24:30.571Z,8.90
2018-12-11T14:26:59.805Z,8.90
2018-12-11T14:29:27.965Z,8.90
2018-12-11T14:31:56.102Z,8.80
2018-12-11T14:34:24.356Z,8.80
2018-12-11T14:36:52.446Z,8.80
2018-12-11T14:39:20.599Z,8.70
2018-12-11T14:41:48.682Z,8.70
2018-12-11T14:44:16.784Z,8.70
2018-12-11T14:46:44.898Z,8.70
2018-12-11T14:49:12.964Z,8.70
2018-12-11T14:51:41.082Z,8.60
2018-12-11T14:54:09.166Z,8.60
2018-12-11T14:56:37.306Z,8.60
2018-12-11T14:59:05.419Z,8.60
2018-12-11T15:01:33.534Z,8.50
2018-12-11T15:04:01.643Z,8.50
2018-12-11T15:06:29.775Z,8.50
2018-12-11T15:08:59.775Z,8.50
2018-12-11T15:11:27.862Z,8.50
2018-12-11T15:13:55.921Z,8.40
2018-12-11T15:16:24.326Z,8.40
2018-12-11T15:18:52.473Z,8.40
2018-12-11T15:21:20.694Z,8.30
2018-12-11T15:23:48.778Z,8.30
2018-12-11T15:26:16.848Z,8.30
2018-12-11T15:28:44.907Z,8.20
2018-12-11T15:31:13.419Z,8.20
2018-12-11T15:33:41.667Z,8.20
2018-12-11T15:36:09.755Z,8.10
2018-12-11T15:38:37.826Z,8.10
2018-12-11T15:41:05.900Z,8.00
2018-12-11T15:43:34.020Z,7.90
2018-12-11T15:46:02.168Z,7.90
2018-12-11T15:48:30.271Z,7.90
2018-12-11T15:50:58.361Z,7.80
2018-12-11T15:53:26.694Z,7.80
2018-12-11T15:55:54.806Z,7.80
2018-12-11T15:58:25.028Z,7.80
2018-12-11T16:00:52.931Z,7.80
2018-12-11T16:03:21.078Z,7.80
2018-12-11T16:05:49.167Z,7.70
2018-12-11T16:08:17.218Z,7.70
2018-12-11T16:10:45.281Z,7.70
2018-12-11T16:13:13.399Z,7.60
2018-12-11T16:15:41.502Z,7.60
2018-12-11T16:18:09.614Z,7.60
2018-12-11T16:20:37.693Z,7.50
2018-12-11T16:23:05.746Z,7.50
2018-12-11T16:25:33.928Z,7.40
2018-12-11T16:28:02.006Z,7.30
2018-12-11T16:30:30.104Z,7.30
2018-12-11T16:32:58.181Z,7.20
2018-12-11T16:35:26.273Z,7.20
2018-12-11T16:37:54.433Z,7.20
2018-12-11T16:40:22.516Z,7.10
2018-12-11T16:42:50.571Z,7.10
2018-12-11T16:45:18.662Z,7.10
2018-12-11T16:47:46.719Z,7.10
2018-12-11T16:50:14.802Z,7.10
2018-12-11T16:52:42.903Z,7.10
2018-12-11T16:55:11.028Z,7.10
2018-12-11T16:57:39.112Z,7.10
2018-12-11T17:00:09.074Z,7.10
2018-12-11T17:02:37.126Z,7.10
2018-12-11T17:05:05.260Z,7.20
2018-12-11T17:07:33.312Z,7.20
2018-12-11T17:10:01.473Z,7.20
2018-12-11T17:12:29.871Z,7.20
2018-12-11T17:14:59.848Z,7.20
2018-12-11T17:17:28.242Z,7.20
2018-12-11T17:19:57.474Z,7.10
2018-12-11T17:22:25.563Z,7.10
2018-12-11T17:24:53.641Z,7.10
2018-12-11T17:27:21.735Z,7.10
2018-12-11T17:29:49.787Z,7.10
2018-12-11T17:32:17.872Z,7.10
2018-12-11T17:34:45.993Z,7.10
2018-12-11T17:37:14.170Z,7.10
2018-12-11T17:39:42.214Z,7.10
2018-12-11T17:42:10.294Z,7.10
2018-12-11T17:44:38.351Z,7.10
2018-12-11T17:47:06.469Z,7.10
2018-12-11T17:49:34.524Z,7.10
2018-12-11T17:52:02.591Z,7.10
2018-12-11T17:54:30.723Z,7.10
2018-12-11T17:56:58.920Z,7.10
2018-12-11T17:59:26.980Z,7.10
2018-12-11T18:01:55.691Z,7.10
2018-12-11T18:04:23.990Z,7.10
2018-12-11T18:06:52.070Z,7.20
2018-12-11T18:09:20.243Z,7.20
2018-12-11T18:11:48.303Z,7.20
2018-12-11T18:14:16.406Z,7.20
2018-12-11T18:16:44.482Z,7.20
2018-12-11T18:19:12.539Z,7.20
2018-12-11T18:21:40.599Z,7.20
2018-12-11T18:24:08.731Z,7.30
2018-12-11T18:26:36.881Z,7.30
2018-12-11T18:29:04.940Z,7.30
2018-12-11T18:31:33.074Z,7.20
2018-12-11T18:34:01.132Z,7.20
2018-12-11T18:36:29.299Z,7.10
2018-12-11T18:38:57.382Z,7.10
2018-12-11T18:41:25.563Z,7.00
2018-12-11T18:43:53.622Z,7.00
2018-12-11T18:46:21.834Z,6.90
2018-12-11T18:48:49.894Z,6.90
2018-12-11T18:51:18.064Z,6.90
2018-12-11T18:53:46.203Z,6.80
2018-12-11T18:56:14.259Z,6.80
2018-12-11T18:58:42.377Z,6.70
2018-12-11T19:01:11.134Z,6.70
2018-12-11T19:03:39.267Z,6.70
2018-12-11T19:06:07.304Z,6.60
2018-12-11T19:08:35.378Z,6.60
2018-12-11T19:11:03.535Z,6.50
2018-12-11T19:13:31.604Z,6.50
2018-12-11T19:15:59.661Z,6.50
2018-12-11T19:18:27.774Z,6.50
2018-12-11T19:20:55.833Z,6.50
2018-12-11T19:23:27.502Z,6.50
2018-12-11T19:25:55.562Z,6.50
2018-12-11T19:28:23.660Z,6.50
2018-12-11T19:30:51.808Z,6.50
2018-12-11T19:33:19.912Z,6.50
2018-12-11T19:35:47.983Z,6.50
2018-12-11T19:38:16.263Z,6.50
2018-12-11T19:40:44.386Z,6.50
2018-12-11T19:43:12.597Z,6.50
2018-12-11T19:45:40.731Z,6.50
2018-12-11T19:48:09.015Z,6.50
2018-12-11T19:50:37.088Z,6.50
2018-12-11T19:53:05.266Z,6.50
2018-12-11T19:55:33.335Z,6.50
2018-12-11T19:58:01.407Z,6.40
2018-12-11T20:00:29.507Z,6.40
2018-12-11T20:02:57.587Z,6.30
2018-12-11T20:05:25.783Z,6.30
2018-12-11T20:07:53.933Z,6.20
2018-12-11T20:10:23.915Z,6.20
2018-12-11T20:12:52.015Z,6.10
2018-12-11T20:15:20.098Z,6.10
2018-12-11T20:17:48.159Z,6.00
2018-12-11T20:20:24.976Z,6.00
2018-12-11T20:22:53.101Z,5.90
2018-12-11T20:25:21.175Z,5.80
2018-12-11T20:27:49.234Z,5.80
2018-12-11T20:30:17.463Z,5.80
2018-12-11T20:32:45.547Z,5.70
2018-12-11T20:35:13.653Z,5.70
2018-12-11T20:37:41.740Z,5.60
2018-12-11T20:40:09.979Z,5.60
2018-12-11T20:42:38.037Z,5.50
2018-12-11T20:45:06.694Z,5.50
2018-12-11T20:47:34.838Z,5.40
2018-12-11T20:50:03.001Z,5.40
2018-12-11T20:52:31.055Z,5.30
2018-12-11T20:54:59.173Z,5.30
2018-12-11T20:57:27.307Z,5.20
2018-12-11T20:59:55.370Z,5.20
2018-12-11T21:02:23.439Z,5.20
2018-12-11T21:04:51.497Z,5.10
2018-12-11T21:07:19.563Z,5.10
2018-12-11T21:09:47.635Z,5.00
2018-12-11T21:12:15.734Z,5.00
2018-12-11T21:14:43.791Z,5.00
2018-12-11T21:17:11.884Z,4.90
2018-12-11T21:19:39.989Z,4.90
2018-12-11T21:22:08.081Z,4.90
2018-12-11T21:24:36.166Z,4.80
2018-12-11T21:27:06.810Z,4.80
2018-12-11T21:29:34.902Z,4.80
2018-12-11T21:32:02.972Z,4.70
2018-12-11T21:34:31.021Z,4.70
2018-12-11T21:36:59.107Z,4.60
2018-12-11T21:39:27.217Z,4.60
2018-12-11T21:41:55.405Z,4.60
2018-12-11T21:44:23.538Z,4.50
2018-12-11T21:46:51.724Z,4.50
2018-12-11T21:49:19.784Z,4.50
2018-12-11T21:51:47.847Z,4.40
2018-12-11T21:54:15.914Z,4.40
2018-12-11T21:56:43.991Z,4.40
2018-12-11T21:59:12.050Z,4.40
2018-12-11T22:01:40.112Z,4.40
2018-12-11T22:04:08.257Z,4.40
2018-12-11T22:06:36.353Z,4.40
2018-12-11T22:09:06.806Z,4.40
2018-12-11T22:11:34.995Z,4.30
2018-12-11T22:14:03.289Z,4.30
2018-12-11T22:16:31.480Z,4.30
2018-12-11T22:18:59.550Z,4.30
2018-12-11T22:21:27.606Z,4.40
2018-12-11T22:23:55.662Z,4.40
2018-12-11T22:26:23.738Z,4.40
2018-12-11T22:28:51.841Z,4.50
2018-12-11T22:31:19.938Z,4.50
2018-12-11T22:33:48.018Z,4.50
2018-12-11T22:36:16.979Z,4.60
2018-12-11T22:38:45.051Z,4.60
2018-12-11T22:41:13.098Z,4.70
2018-12-11T22:43:41.903Z,4.70
2018-12-11T22:46:10.196Z,4.70
2018-12-11T22:48:38.434Z,4.80
2018-12-11T22:51:07.026Z,4.80
2018-12-11T22:53:35.085Z,4.80
2018-12-11T22:56:03.253Z,4.90
2018-12-11T22:58:31.325Z,4.90
2018-12-11T23:00:59.467Z,4.90
2018-12-11T23:03:27.561Z,4.90
2018-12-11T23:05:55.667Z,4.80
2018-12-11T23:08:24.646Z,4.90
2018-12-11T23:10:52.894Z,4.90
2018-12-11T23:13:20.965Z,4.90
2018-12-11T23:15:50.172Z,4.90
2018-12-11T23:18:18.351Z,4.90
2018-12-11T23:20:46.496Z,4.90
2018-12-11T23:23:14.556Z,4.90
2018-12-11T23:25:42.622Z,4.90
2018-12-11T23:28:10.690Z,4.90
2018-12-11T23:30:38.820Z,4.90
2018-12-11T23:33:06.862Z,4.90
2018-12-11T23:35:34.922Z,4.90
2018-12-11T23:38:02.980Z,4.90
2018-12-11T23:40:31.127Z,4.90
2018-12-11T23:42:59.858Z,4.90
2018-12-11T23:45:28.108Z,4.90
2018-12-11T23:47:56.163Z,4.90
2018-12-11T23:50:24.234Z,4.90
2018-12-11T23:52:52.298Z,4.90
2018-12-11T23:55:20.372Z,4.90
2018-12-11T23:57:48.442Z,4.90
